createdAt,value
2023-01-17T00:00:09.786Z,166.75
2023-01-17T00:02:38.569Z,169.05
2023-01-17T00:05:24.821Z,155.35
2023-01-17T00:08:10.790Z,154.50
2023-01-17T00:10:43.046Z,140.73
2023-01-17T00:13:10.585Z,149.50
2023-01-17T00:15:39.956Z,146.45
2023-01-17T00:18:07.511Z,143.73
2023-01-17T00:20:53.514Z,160.45
2023-01-17T00:23:42.541Z,139.50
2023-01-17T00:26:18.731Z,146.60
2023-01-17T00:28:47.601Z,152.90
2023-01-17T00:31:16.621Z,137.68
2023-01-17T00:33:44.456Z,154.90
2023-01-17T00:36:12.285Z,165.18
2023-01-17T00:38:40.488Z,173.68
2023-01-17T00:41:13.482Z,165.07
2023-01-17T00:43:59.937Z,151.77
2023-01-17T00:46:46.158Z,163.95
2023-01-17T00:49:32.353Z,165.85
2023-01-17T00:52:19.288Z,163.40
2023-01-17T00:55:05.078Z,153.80
2023-01-17T00:57:50.925Z,157.57
2023-01-17T01:00:38.213Z,182.48
2023-01-17T01:03:30.884Z,140.93
2023-01-17T01:06:17.268Z,141.45
2023-01-17T01:09:03.159Z,188.68
2023-01-17T01:11:48.977Z,147.52
2023-01-17T01:14:35.282Z,142.63
2023-01-17T01:17:21.600Z,164.68
2023-01-17T01:20:10.296Z,136.60
2023-01-17T01:22:56.242Z,135.20
2023-01-17T01:25:42.653Z,127.57
2023-01-17T01:28:31.040Z,116.70
2023-01-17T01:31:20.960Z,127.72
2023-01-17T01:33:50.053Z,127.82
2023-01-17T01:36:17.556Z,119.85
2023-01-17T01:38:46.033Z,112.93
2023-01-17T01:41:13.706Z,140.10
2023-01-17T01:43:49.657Z,138.07
2023-01-17T01:46:32.824Z,127.45
2023-01-17T01:49:15.005Z,110.00
2023-01-17T01:51:47.447Z,107.57
2023-01-17T01:54:30.647Z,109.18
2023-01-17T01:57:02.972Z,98.20
2023-01-17T01:59:32.334Z,89.88
2023-01-17T02:01:59.967Z,76.53
2023-01-17T02:04:28.774Z,63.75
2023-01-17T02:07:04.089Z,101.88
2023-01-17T02:09:31.940Z,80.80
2023-01-17T02:11:59.952Z,70.25
2023-01-17T02:14:27.516Z,71.05
2023-01-17T02:17:25.799Z,64.53
2023-01-17T02:19:55.999Z,60.55
2023-01-17T02:23:07.797Z,66.18
